EPWR Airport Information

Runway Information
Runway 12 Length 8202 ft width 197 ft
Elevation 404 ft Threshold 0 ft Heading 116
Runway 30 Length 8202 ft Width 197 ft
Elevation 400 ft Threshold 0 ft Heading 296
Airport Frequencies
Type TWR Name WROCLAW TW Frequency 127.225 MHZ
Airport Navaids
Type NDB Name Wroclaw Frequency 255 KHZ
Type NDB Name Wroclaw Frequency 525 KHZ
Type VOR-DME Name Trzebnica Frequency 113600 KHZ
Airport Weather Information & NOTAM
ADDS - METARS form results

(0826 UTC 17 November 2018)
Data provider http://aviationweather.gov/metar/data/
 
METAR text: EPWR 170800Z 08006KT CAVOK 00/M02 Q1038
Conditions at: EPWR (WROCLAW/STRACHOW, PL) observed 0800 UTC 17 November 2018
Temperature: 0.0°C (32°F)
Dewpoint: -2.0°C (28°F) [RH = 86%]
Pressure (altimeter): 30.65 inches Hg (1038.0 mb)
Winds: from the E (80 degrees) at 7 MPH (6 knots; 3.1 m/s)
Visibility: 6 or more miles (10+ km)
Ceiling: ceiling and visibility are OK
Clouds: unknown
Weather: no significant weather observed at this time

METAR text: EPWR 170730Z 08006KT 050V110 CAVOK M00/M02 Q1038
Conditions at: EPWR (WROCLAW/STRACHOW, PL) observed 0730 UTC 17 November 2018
Temperature: 0.0°C (32°F)
Dewpoint: -2.0°C (28°F) [RH = 86%]
Pressure (altimeter): 30.65 inches Hg (1038.0 mb)
Winds: from the E (80 degrees) at 7 MPH (6 knots; 3.1 m/s)
Visibility: 6 or more miles (10+ km)
Ceiling: ceiling and visibility are OK
Clouds: unknown
Weather: no significant weather observed at this time

Forecast for: EPWR (WROCLAW/STRACHOW, PL)
Text: TAF EPWR 170530Z 1706/1806 08007KT CAVOK
Forecast period: 0600 UTC 17 November 2018 to 0600 UTC 18 November 2018
Forecast type: FROM: standard forecast or significant change
Winds: from the E (80 degrees) at 8 MPH (7 knots; 3.6 m/s)
Visibility: 6 or more miles 10+ km)
Ceiling: unknown
Clouds: missing
Weather: NSW  (no significant weather)
Text: PROB40 1803/1806 3500 BR
Forecast period: 0300 to 0600 UTC 18 November 2018
Forecast type: PROBABLE: 40 percent likelihood of the following during this time
Visibility: 2.17 miles (3.49 km)
Ceiling: unknown
Clouds: missing
Weather: BR  (mist)